createdAt,value
2023-02-19T00:01:56.392Z,97786.63
2023-02-19T00:04:26.781Z,97781.41
2023-02-19T00:06:59.786Z,97776.22
2023-02-19T00:09:30.139Z,97774.22
2023-02-19T00:12:00.532Z,97781.75
2023-02-19T00:14:30.913Z,97771.56
2023-02-19T00:17:01.406Z,97771.56
2023-02-19T00:19:32.066Z,97772.34
2023-02-19T00:22:05.146Z,97766.22
2023-02-19T00:24:35.495Z,97771.75
2023-02-19T00:27:05.991Z,97766.81
2023-02-19T00:29:36.599Z,97751.34
2023-02-19T00:32:07.730Z,97756.56
2023-02-19T00:34:38.155Z,97748.13
2023-02-19T00:37:11.283Z,97741.97
2023-02-19T00:39:41.590Z,97746.44
2023-02-19T00:42:12.359Z,97737.50
2023-02-19T00:44:42.765Z,97741.50
2023-02-19T00:47:13.119Z,97735.69
2023-02-19T00:49:43.531Z,97735.03
2023-02-19T00:52:16.531Z,97727.81
2023-02-19T00:54:46.891Z,97720.28
2023-02-19T00:57:17.299Z,97722.75
2023-02-19T00:59:47.629Z,97715.88
2023-02-19T01:02:18.303Z,97718.31
2023-02-19T01:04:48.733Z,97710.34
2023-02-19T01:07:21.822Z,97713.59
2023-02-19T01:09:52.166Z,97710.22
2023-02-19T01:12:24.342Z,97708.81
2023-02-19T01:14:55.065Z,97718.53
2023-02-19T01:17:25.454Z,97717.44
2023-02-19T01:19:56.006Z,97704.13
2023-02-19T01:22:29.079Z,97700.94
2023-02-19T01:24:59.326Z,97691.13
2023-02-19T01:27:29.881Z,97682.06
2023-02-19T01:30:00.336Z,97661.22
2023-02-19T01:32:31.106Z,97659.38
2023-02-19T01:35:01.490Z,97649.28
2023-02-19T01:37:34.679Z,97648.50
2023-02-19T01:40:05.097Z,97647.13
2023-02-19T01:42:35.664Z,97645.88
2023-02-19T01:45:26.069Z,97632.72
2023-02-19T01:48:04.842Z,97618.59
2023-02-19T01:50:41.191Z,97625.38
2023-02-19T01:53:16.839Z,97630.09
2023-02-19T01:55:50.461Z,97613.38
2023-02-19T01:58:21.372Z,97615.50
2023-02-19T02:00:51.968Z,97603.41
2023-02-19T02:03:23.898Z,97611.84
2023-02-19T02:06:00.029Z,97604.78
2023-02-19T02:08:47.038Z,97601.09
2023-02-19T02:11:17.612Z,97604.59
2023-02-19T02:13:48.788Z,97592.50
2023-02-19T02:16:27.049Z,97604.03
2023-02-19T02:19:05.528Z,97582.72
2023-02-19T02:22:08.989Z,97573.22
2023-02-19T02:25:20.279Z,97577.97
2023-02-19T02:28:08.833Z,97567.72
2023-02-19T02:30:46.977Z,97559.56
2023-02-19T02:33:27.913Z,97559.13
2023-02-19T02:36:04.124Z,97545.44
2023-02-19T02:38:39.460Z,97543.63
2023-02-19T02:41:10.543Z,97545.44
2023-02-19T02:43:41.033Z,97537.94
2023-02-19T02:46:20.238Z,97524.88
2023-02-19T02:48:56.702Z,97519.03
2023-02-19T02:51:30.601Z,97518.22
2023-02-19T02:54:23.495Z,97525.00
2023-02-19T02:56:55.986Z,97525.00
2023-02-19T02:59:31.024Z,97536.19
2023-02-19T03:02:11.749Z,97526.69
2023-02-19T03:05:05.840Z,97523.59
2023-02-19T03:07:42.759Z,97508.44
2023-02-19T03:10:18.616Z,97506.91
2023-02-19T03:13:01.460Z,97500.16
2023-02-19T03:15:50.659Z,97497.97
2023-02-19T03:18:38.950Z,97490.91
2023-02-19T03:21:11.958Z,97492.66
2023-02-19T03:23:57.720Z,97491.41
2023-02-19T03:26:29.512Z,97504.91
2023-02-19T03:29:13.705Z,97504.47
2023-02-19T03:31:47.901Z,97485.44
2023-02-19T03:34:28.103Z,97487.25
2023-02-19T03:37:06.510Z,97480.97
2023-02-19T03:39:44.468Z,97469.75
2023-02-19T03:42:35.544Z,97482.03
2023-02-19T03:45:23.310Z,97481.56
2023-02-19T03:48:01.016Z,97470.91
2023-02-19T03:50:46.282Z,97457.56
2023-02-19T03:53:27.705Z,97462.94
2023-02-19T03:56:10.191Z,97480.16
2023-02-19T03:58:53.729Z,97466.63
2023-02-19T04:01:30.006Z,97461.88
2023-02-19T04:04:05.767Z,97457.84
2023-02-19T04:06:41.419Z,97457.34
2023-02-19T04:09:14.765Z,97456.56
2023-02-19T04:11:49.632Z,97449.06
2023-02-19T04:14:25.873Z,97467.75
2023-02-19T04:17:03.135Z,97454.34
2023-02-19T04:19:39.393Z,97460.16
2023-02-19T04:22:13.586Z,97453.31
2023-02-19T04:24:51.468Z,97460.34
2023-02-19T04:27:22.485Z,97451.75
2023-02-19T04:29:52.532Z,97445.28
2023-02-19T04:32:23.148Z,97453.47
2023-02-19T04:34:54.427Z,97453.53
2023-02-19T04:37:27.485Z,97451.53
2023-02-19T04:39:57.818Z,97445.25
2023-02-19T04:42:28.206Z,97442.19
2023-02-19T04:44:58.540Z,97450.94
2023-02-19T04:47:28.887Z,97450.66
2023-02-19T04:49:59.261Z,97454.47
2023-02-19T04:52:33.426Z,97449.44
2023-02-19T04:55:03.735Z,97458.75
2023-02-19T04:57:34.064Z,97451.13
2023-02-19T05:00:04.622Z,97460.47
2023-02-19T05:02:35.079Z,97457.06
2023-02-19T05:05:05.566Z,97450.88
2023-02-19T05:07:40.701Z,97442.13
2023-02-19T05:10:11.631Z,97436.50
2023-02-19T05:12:42.017Z,97431.91
2023-02-19T05:15:12.492Z,97443.06
2023-02-19T05:17:42.889Z,97432.47
2023-02-19T05:20:14.229Z,97438.31
2023-02-19T05:22:47.186Z,97436.59
2023-02-19T05:25:17.929Z,97435.66
2023-02-19T05:27:48.306Z,97451.22
2023-02-19T05:30:19.058Z,97457.06
2023-02-19T05:32:49.518Z,97454.78
2023-02-19T05:35:20.175Z,97458.56
2023-02-19T05:37:53.290Z,97455.88
2023-02-19T05:40:23.572Z,97457.63
2023-02-19T05:42:54.039Z,97459.19
2023-02-19T05:45:24.336Z,97452.00
2023-02-19T05:47:54.658Z,97458.75
2023-02-19T05:50:25.165Z,97470.88
2023-02-19T05:52:58.224Z,97464.47
2023-02-19T05:55:28.677Z,97474.16
2023-02-19T05:57:59.366Z,97495.75
2023-02-19T06:00:30.146Z,97500.84
2023-02-19T06:03:00.626Z,97500.84
2023-02-19T06:05:31.370Z,97503.97
2023-02-19T06:08:04.460Z,97519.63
2023-02-19T06:10:34.844Z,97513.19
2023-02-19T06:13:05.274Z,97514.53
2023-02-19T06:15:35.613Z,97522.94
2023-02-19T06:18:06.084Z,97532.16
2023-02-19T06:20:36.677Z,97539.31
2023-02-19T06:23:09.691Z,97540.38
2023-02-19T06:25:39.943Z,97550.66
2023-02-19T06:28:10.661Z,97563.44
2023-02-19T06:30:41.040Z,97575.34
2023-02-19T06:33:11.506Z,97571.38
2023-02-19T06:35:41.858Z,97563.06
2023-02-19T06:38:14.813Z,97585.75
2023-02-19T06:40:46.533Z,97577.81
2023-02-19T06:43:16.861Z,97569.75
2023-02-19T06:45:47.191Z,97579.13
2023-02-19T06:48:17.618Z,97570.81
2023-02-19T06:50:48.028Z,97568.22
2023-02-19T06:53:21.059Z,97585.03
2023-02-19T06:56:00.072Z,97582.22
2023-02-19T06:58:31.191Z,97593.34
2023-02-19T07:01:01.580Z,97599.94
2023-02-19T07:03:31.983Z,97597.69
2023-02-19T07:06:03.627Z,97592.03
2023-02-19T07:08:36.524Z,97591.69
2023-02-19T07:11:07.014Z,97603.59
2023-02-19T07:13:37.599Z,97608.03
2023-02-19T07:16:11.791Z,97601.31
2023-02-19T07:18:43.680Z,97604.84
2023-02-19T07:21:16.960Z,97608.75
2023-02-19T07:23:49.921Z,97621.66
2023-02-19T07:26:22.251Z,97631.28
2023-02-19T07:28:54.704Z,97636.38
2023-02-19T07:31:27.122Z,97636.06
2023-02-19T07:33:58.010Z,97633.31
2023-02-19T07:36:28.906Z,97630.97
2023-02-19T07:39:03.332Z,97633.59
2023-02-19T07:41:33.929Z,97647.06
2023-02-19T07:44:04.356Z,97638.44
2023-02-19T07:46:35.021Z,97646.72
2023-02-19T07:49:07.526Z,97649.22
2023-02-19T07:51:40.173Z,97648.63
2023-02-19T07:54:13.748Z,97645.69
2023-02-19T07:56:46.877Z,97655.53
2023-02-19T07:59:19.507Z,97652.03
2023-02-19T08:02:02.159Z,97647.09
2023-02-19T08:04:32.485Z,97657.50
2023-02-19T08:07:02.972Z,97661.50
2023-02-19T08:09:36.893Z,97658.88
2023-02-19T08:12:20.290Z,97655.78
2023-02-19T08:14:50.641Z,97655.63
2023-02-19T08:17:21.158Z,97657.50
2023-02-19T08:19:51.677Z,97660.56
2023-02-19T08:22:22.029Z,97666.84
2023-02-19T08:24:55.082Z,97680.84
2023-02-19T08:27:25.439Z,97681.00
2023-02-19T08:29:58.720Z,97687.72
2023-02-19T08:32:29.159Z,97687.13
2023-02-19T08:34:59.534Z,97694.03
2023-02-19T08:37:29.826Z,97691.75
2023-02-19T08:40:02.743Z,97696.22
2023-02-19T08:42:33.191Z,97711.22
2023-02-19T08:45:03.552Z,97706.00
2023-02-19T08:47:33.907Z,97716.13
2023-02-19T08:50:05.199Z,97717.84
2023-02-19T08:52:35.664Z,97736.72
2023-02-19T08:55:10.192Z,97748.50
2023-02-19T08:57:41.002Z,97787.03
2023-02-19T09:00:13.719Z,97781.53
2023-02-19T09:02:44.063Z,97806.97
2023-02-19T09:05:15.099Z,97825.88
2023-02-19T09:07:45.255Z,97823.84
2023-02-19T09:10:18.502Z,97827.06
2023-02-19T09:12:48.790Z,97832.75
2023-02-19T09:15:19.423Z,97839.81
2023-02-19T09:17:54.789Z,97836.56
2023-02-19T09:20:25.198Z,97845.00
2023-02-19T09:23:00.974Z,97859.09
2023-02-19T09:25:33.993Z,97878.56
2023-02-19T09:28:04.314Z,97880.06
2023-02-19T09:30:34.921Z,97886.06
2023-02-19T09:33:05.522Z,97890.31
2023-02-19T09:35:35.890Z,97895.22
2023-02-19T09:38:06.240Z,97906.88
2023-02-19T09:40:40.164Z,97909.34
2023-02-19T09:43:12.855Z,97925.72
2023-02-19T09:45:43.904Z,97922.97
2023-02-19T09:48:15.418Z,97918.34
2023-02-19T09:50:48.780Z,97938.41
2023-02-19T09:53:24.688Z,97942.81
2023-02-19T09:55:58.877Z,97952.97
2023-02-19T09:58:34.509Z,97949.97
2023-02-19T10:01:09.174Z,97956.38
2023-02-19T10:03:43.458Z,97964.00
2023-02-19T10:06:23.653Z,97974.09
2023-02-19T10:08:57.521Z,97991.09
2023-02-19T10:11:30.985Z,97992.75
2023-02-19T10:14:09.505Z,98007.13
2023-02-19T10:16:45.537Z,98004.03
2023-02-19T10:19:17.107Z,98028.97
2023-02-19T10:21:47.861Z,98029.09
2023-02-19T10:24:27.123Z,98023.72
2023-02-19T10:27:00.149Z,98037.50
2023-02-19T10:29:30.622Z,98039.69
2023-02-19T10:32:27.446Z,98036.81
2023-02-19T10:35:14.425Z,98047.50
2023-02-19T10:37:50.872Z,98050.06
2023-02-19T10:40:23.805Z,98059.69
2023-02-19T10:42:59.512Z,98061.66
2023-02-19T10:45:38.432Z,98067.16
2023-02-19T10:48:10.528Z,98063.50
2023-02-19T10:50:48.153Z,98070.19
2023-02-19T10:53:26.238Z,98085.38
2023-02-19T10:56:11.556Z,98085.81
2023-02-19T10:58:47.406Z,98090.97
2023-02-19T11:01:23.896Z,98089.78
2023-02-19T11:03:55.869Z,98098.91
2023-02-19T11:06:30.333Z,98099.22
2023-02-19T11:09:03.410Z,98096.03
2023-02-19T11:11:37.411Z,98102.97
2023-02-19T11:14:24.236Z,98113.59
2023-02-19T11:16:58.982Z,98116.25
2023-02-19T11:19:34.749Z,98116.41
2023-02-19T11:22:06.492Z,98126.56
2023-02-19T11:24:41.199Z,98126.56
2023-02-19T11:27:22.548Z,98131.28
2023-02-19T11:29:55.590Z,98127.94
2023-02-19T11:32:32.503Z,98132.09
2023-02-19T11:35:19.831Z,98139.28
2023-02-19T11:38:02.519Z,98142.56
2023-02-19T11:40:47.174Z,98142.50
2023-02-19T11:43:41.923Z,98140.56
2023-02-19T11:46:20.868Z,98139.28
2023-02-19T11:49:06.801Z,98150.44
2023-02-19T11:52:08.138Z,98154.56
2023-02-19T11:54:52.831Z,98160.66
2023-02-19T11:57:41.297Z,98161.09
2023-02-19T12:00:33.359Z,98157.78
2023-02-19T12:03:44.940Z,98169.97
2023-02-19T12:06:29.330Z,98169.00
2023-02-19T12:09:21.234Z,98164.56
2023-02-19T12:12:24.607Z,98161.47
2023-02-19T12:15:21.838Z,98164.63
2023-02-19T12:18:22.306Z,98185.94
2023-02-19T12:21:10.994Z,98181.78
2023-02-19T12:24:05.113Z,98181.88
2023-02-19T12:26:46.866Z,98184.28
2023-02-19T12:29:49.042Z,98179.06
2023-02-19T12:32:50.292Z,98183.19
2023-02-19T12:35:44.573Z,98195.19
2023-02-19T12:38:33.701Z,98187.72
2023-02-19T12:41:32.787Z,98196.97
2023-02-19T12:44:08.951Z,98196.13
2023-02-19T12:46:43.376Z,98204.53
2023-02-19T12:49:19.778Z,98206.41
2023-02-19T12:51:55.341Z,98213.56
2023-02-19T12:54:32.619Z,98214.78
2023-02-19T12:57:07.245Z,98217.34
2023-02-19T12:59:43.653Z,98219.69
2023-02-19T13:02:20.836Z,98221.69
2023-02-19T13:04:59.215Z,98222.72
2023-02-19T13:07:38.856Z,98223.34
2023-02-19T13:10:33.779Z,98224.44
2023-02-19T13:13:10.308Z,98223.91
2023-02-19T13:15:44.943Z,98225.91
2023-02-19T13:18:22.934Z,98226.34
2023-02-19T13:20:55.903Z,98225.78
2023-02-19T13:23:44.137Z,98224.13
2023-02-19T13:26:40.577Z,98233.81
2023-02-19T13:29:30.865Z,98232.50
2023-02-19T13:32:46.717Z,98238.25
2023-02-19T13:35:35.062Z,98236.06
2023-02-19T13:38:08.070Z,98248.06
2023-02-19T13:40:42.417Z,98245.75
2023-02-19T13:43:28.661Z,98237.91
2023-02-19T13:46:02.434Z,98231.19
2023-02-19T13:48:35.334Z,98241.34
2023-02-19T13:51:42.097Z,98242.47
2023-02-19T13:54:30.332Z,98249.53
2023-02-19T13:57:32.347Z,98243.66
2023-02-19T14:00:05.565Z,98248.75
2023-02-19T14:02:38.050Z,98245.09
2023-02-19T14:05:12.063Z,98246.22
2023-02-19T14:08:03.384Z,98252.38
2023-02-19T14:11:02.651Z,98260.53
2023-02-19T14:14:23.720Z,98254.63
2023-02-19T14:17:09.389Z,98268.16
2023-02-19T14:19:58.817Z,98262.75
2023-02-19T14:23:19.945Z,98269.13
2023-02-19T14:25:58.423Z,98271.59
2023-02-19T14:28:36.310Z,98275.31
2023-02-19T14:31:18.112Z,98277.41
2023-02-19T14:33:54.885Z,98287.66
2023-02-19T14:36:48.880Z,98276.28
2023-02-19T14:39:22.671Z,98276.63
2023-02-19T14:41:56.066Z,98278.47
2023-02-19T14:44:29.298Z,98271.53
2023-02-19T14:47:06.059Z,98282.59
2023-02-19T14:49:46.326Z,98291.41
2023-02-19T14:52:24.990Z,98289.66
2023-02-19T14:54:59.738Z,98285.00
2023-02-19T14:57:34.591Z,98287.97
2023-02-19T15:00:18.207Z,98296.03
2023-02-19T15:02:49.139Z,98301.38
2023-02-19T15:05:27.954Z,98310.97
2023-02-19T15:08:02.982Z,98316.38
2023-02-19T15:10:36.533Z,98312.06
2023-02-19T15:13:12.139Z,98314.72
2023-02-19T15:15:47.547Z,98310.19
2023-02-19T15:18:23.688Z,98317.78
2023-02-19T15:21:04.779Z,98308.75
2023-02-19T15:23:37.767Z,98308.50
2023-02-19T15:26:08.851Z,98312.06
2023-02-19T15:28:39.043Z,98324.06
2023-02-19T15:31:19.354Z,98320.00
2023-02-19T15:33:55.101Z,98325.34
2023-02-19T15:36:32.572Z,98320.50
2023-02-19T15:39:04.857Z,98332.22
2023-02-19T15:41:38.311Z,98334.81
2023-02-19T15:44:24.191Z,98343.72
2023-02-19T15:46:55.606Z,98337.72
2023-02-19T15:49:32.091Z,98350.03
2023-02-19T15:52:10.842Z,98344.94
2023-02-19T15:54:53.340Z,98338.00
2023-02-19T15:57:32.656Z,98338.22
2023-02-19T16:00:12.539Z,98347.78
2023-02-19T16:02:44.604Z,98349.09
2023-02-19T16:05:18.559Z,98339.44
2023-02-19T16:08:08.663Z,98345.47
2023-02-19T16:10:39.005Z,98358.53
2023-02-19T16:13:10.080Z,98353.19
2023-02-19T16:15:43.879Z,98357.50
2023-02-19T16:18:18.132Z,98347.00
2023-02-19T16:20:51.210Z,98346.31
2023-02-19T16:23:25.512Z,98356.63
2023-02-19T16:26:03.152Z,98352.31
2023-02-19T16:28:40.082Z,98357.81
2023-02-19T16:31:13.853Z,98370.88
2023-02-19T16:33:48.465Z,98379.22
2023-02-19T16:36:41.939Z,98376.66
2023-02-19T16:39:26.809Z,98381.56
2023-02-19T16:42:21.655Z,98391.69
2023-02-19T16:44:51.993Z,98393.38
2023-02-19T16:47:35.936Z,98389.72
2023-02-19T16:50:15.937Z,98396.88
2023-02-19T16:52:56.706Z,98405.16
2023-02-19T16:55:30.516Z,98410.31
2023-02-19T16:58:00.925Z,98412.06
2023-02-19T17:00:34.222Z,98426.59
2023-02-19T17:03:09.946Z,98423.56
2023-02-19T17:05:42.439Z,98427.03
2023-02-19T17:08:35.654Z,98439.72
2023-02-19T17:11:14.009Z,98445.63
2023-02-19T17:13:45.968Z,98445.78
2023-02-19T17:16:22.409Z,98445.72
2023-02-19T17:18:54.375Z,98452.06
2023-02-19T17:21:27.032Z,98447.00
2023-02-19T17:23:57.890Z,98453.44
2023-02-19T17:26:33.493Z,98468.06
2023-02-19T17:29:07.236Z,98468.03
2023-02-19T17:31:37.953Z,98461.88
2023-02-19T17:34:08.759Z,98480.06
2023-02-19T17:36:41.069Z,98469.97
2023-02-19T17:39:18.007Z,98480.94
2023-02-19T17:41:50.911Z,98473.81
2023-02-19T17:44:21.229Z,98473.06
2023-02-19T17:46:51.666Z,98473.44
2023-02-19T17:49:22.111Z,98476.75
2023-02-19T17:51:52.504Z,98470.66
2023-02-19T17:54:23.099Z,98469.56
2023-02-19T17:56:56.102Z,98459.53
2023-02-19T17:59:26.453Z,98476.44
2023-02-19T18:01:57.258Z,98473.78
2023-02-19T18:04:27.586Z,98481.25
2023-02-19T18:06:58.076Z,98487.84
2023-02-19T18:09:28.440Z,98482.34
2023-02-19T18:12:01.453Z,98481.94
2023-02-19T18:14:31.847Z,98487.50
2023-02-19T18:17:02.404Z,98491.41
2023-02-19T18:19:32.857Z,98496.44
2023-02-19T18:22:05.205Z,98497.63
2023-02-19T18:24:36.736Z,98527.13
2023-02-19T18:27:09.868Z,98515.91
2023-02-19T18:29:40.215Z,98519.34
2023-02-19T18:32:10.738Z,98512.50
2023-02-19T18:34:41.249Z,98512.56
2023-02-19T18:37:11.816Z,98512.19
2023-02-19T18:39:43.961Z,98514.13
2023-02-19T18:42:17.857Z,98515.81
2023-02-19T18:44:52.819Z,98514.91
2023-02-19T18:47:25.375Z,98524.69
2023-02-19T18:49:58.478Z,98525.81
2023-02-19T18:52:30.630Z,98522.25
2023-02-19T18:55:01.306Z,98510.44
2023-02-19T18:57:34.496Z,98514.25
2023-02-19T19:00:06.434Z,98509.44
2023-02-19T19:02:48.754Z,98507.94
2023-02-19T19:05:23.229Z,98511.38
2023-02-19T19:07:55.532Z,98514.91
2023-02-19T19:10:26.289Z,98513.66
2023-02-19T19:12:59.448Z,98513.97
2023-02-19T19:15:30.067Z,98515.06
2023-02-19T19:18:00.529Z,98524.56
2023-02-19T19:20:30.878Z,98518.59
2023-02-19T19:23:01.252Z,98518.59
2023-02-19T19:25:31.637Z,98517.88
2023-02-19T19:28:04.598Z,98520.22
2023-02-19T19:30:35.062Z,98511.28
2023-02-19T19:33:05.538Z,98511.38
2023-02-19T19:35:36.018Z,98522.75
2023-02-19T19:38:06.802Z,98528.63
2023-02-19T19:40:37.477Z,98530.59
2023-02-19T19:43:10.533Z,98539.28
2023-02-19T19:45:40.996Z,98541.69
2023-02-19T19:48:11.349Z,98542.16
2023-02-19T19:50:41.703Z,98534.03
2023-02-19T19:53:12.001Z,98534.84
2023-02-19T19:55:42.490Z,98533.69
2023-02-19T19:58:16.889Z,98537.28
2023-02-19T20:00:47.657Z,98536.53
2023-02-19T20:03:18.576Z,98536.19
2023-02-19T20:05:50.634Z,98534.22
2023-02-19T20:08:29.916Z,98533.06
2023-02-19T20:11:00.361Z,98529.59
2023-02-19T20:13:34.606Z,98529.63
2023-02-19T20:16:06.234Z,98520.22
2023-02-19T20:18:38.130Z,98517.09
2023-02-19T20:21:11.131Z,98512.06
2023-02-19T20:23:42.205Z,98521.16
2023-02-19T20:26:12.591Z,98514.91
2023-02-19T20:28:46.594Z,98511.91
2023-02-19T20:31:17.180Z,98513.09
2023-02-19T20:33:47.920Z,98515.53
2023-02-19T20:36:18.305Z,98514.75
2023-02-19T20:38:48.788Z,98515.19
2023-02-19T20:41:19.469Z,98520.28
2023-02-19T20:43:52.684Z,98519.47
2023-02-19T20:46:23.477Z,98524.50
2023-02-19T20:48:53.872Z,98523.59
2023-02-19T20:51:24.389Z,98530.97
2023-02-19T20:53:54.884Z,98535.94
2023-02-19T20:56:25.376Z,98528.88
2023-02-19T20:58:58.598Z,98533.50
2023-02-19T21:01:29.950Z,98534.16
2023-02-19T21:04:00.433Z,98536.50
2023-02-19T21:06:30.833Z,98542.66
2023-02-19T21:09:01.471Z,98536.75
2023-02-19T21:11:32.123Z,98527.69
2023-02-19T21:14:05.172Z,98537.00
2023-02-19T21:16:36.143Z,98551.41
2023-02-19T21:19:07.322Z,98553.22
2023-02-19T21:21:39.434Z,98546.88
2023-02-19T21:24:10.387Z,98544.50
2023-02-19T21:26:43.202Z,98546.00
2023-02-19T21:29:19.988Z,98536.97
2023-02-19T21:31:52.641Z,98551.41
2023-02-19T21:34:25.408Z,98546.69
2023-02-19T21:36:56.423Z,98540.72
2023-02-19T21:39:31.442Z,98538.63
2023-02-19T21:42:02.740Z,98542.06
2023-02-19T21:44:35.786Z,98554.13
2023-02-19T21:47:06.545Z,98558.81
2023-02-19T21:49:36.907Z,98553.94
2023-02-19T21:52:07.302Z,98552.69
2023-02-19T21:54:40.641Z,98555.31
2023-02-19T21:57:11.188Z,98555.22
2023-02-19T21:59:44.353Z,98547.28
2023-02-19T22:02:14.738Z,98543.53
2023-02-19T22:04:45.090Z,98539.13
2023-02-19T22:07:15.780Z,98539.00
2023-02-19T22:09:46.145Z,98537.00
2023-02-19T22:12:16.588Z,98532.88
2023-02-19T22:14:49.561Z,98530.91
2023-02-19T22:17:19.967Z,98530.88
2023-02-19T22:19:50.502Z,98523.72
2023-02-19T22:22:21.065Z,98529.03
2023-02-19T22:24:51.460Z,98530.75
2023-02-19T22:27:22.192Z,98524.94
2023-02-19T22:29:55.211Z,98520.69
2023-02-19T22:32:25.598Z,98522.88
2023-02-19T22:34:56.012Z,98526.72
2023-02-19T22:37:26.598Z,98529.34
2023-02-19T22:39:57.246Z,98523.34
2023-02-19T22:42:29.452Z,98525.97
2023-02-19T22:45:02.426Z,98525.50
2023-02-19T22:47:32.740Z,98522.25
2023-02-19T22:50:03.117Z,98524.50
2023-02-19T22:52:33.392Z,98530.38
2023-02-19T22:55:03.996Z,98521.34
2023-02-19T22:57:35.175Z,98516.22
2023-02-19T23:00:09.345Z,98511.91
2023-02-19T23:02:39.761Z,98515.78
2023-02-19T23:05:10.495Z,98522.97
2023-02-19T23:07:40.912Z,98513.66
2023-02-19T23:10:12.809Z,98508.03
2023-02-19T23:12:44.405Z,98517.00
2023-02-19T23:15:17.461Z,98506.69
2023-02-19T23:17:47.813Z,98507.47
2023-02-19T23:20:18.490Z,98496.41
2023-02-19T23:22:49.037Z,98494.03
2023-02-19T23:25:19.848Z,98489.84
2023-02-19T23:27:50.213Z,98492.59
2023-02-19T23:30:24.088Z,98503.31
2023-02-19T23:32:54.575Z,98498.44
2023-02-19T23:35:24.910Z,98490.81
2023-02-19T23:37:55.985Z,98486.22
2023-02-19T23:40:26.435Z,98480.38
2023-02-19T23:42:57.486Z,98470.09
2023-02-19T23:45:30.532Z,98474.41
2023-02-19T23:48:00.857Z,98470.97
2023-02-19T23:50:31.164Z,98473.22
2023-02-19T23:53:01.865Z,98477.97
2023-02-19T23:55:32.319Z,98470.59
2023-02-19T23:58:02.855Z,98470.59
